DFW weather

Dallas Fort Worth International Airport
Dallas-Fort Worth, Texas, United States

Public forecast

Using degrees Fahrenheit for public forecast. Weather courtesy of forecast.io.

METAR (pilot weather report)

Retrieved 2017/06/28 03:53 UTC (59 minutes ago):

KDFW 280353Z 12006KT 10SM FEW060 SCT250 26/23 A2994 RMK AO2 SLP128 OCNL LTGICCC DSNT SE CB DSNT SE LTL MOVMT T02610233

TAF (pilot weather forecast)

Forecast is more than 12 hours old.

Retrieved 2017/06/27 00:22 UTC (1 day ago):

TAF KDFW 272320Z 2800/2906 14008KT P6SM SCT050 BKN200 FM281100 18008KT P6SM SCT015 TEMPO 2812/2815 BKN015 FM281600 18012KT P6SM SCT035 BKN300